Terminal Aerodrome Forecast
Issued by NWS

Home | Current Version | Previous Version | Text Only | Print | Product List | Glossary On
Versions: 1 2 3 4 5 6 7 8 9 10 11 12 13 14 15 16 17 18 19 20 21 22 23 24 25 26 27 28 29 30
000
FTPQ31 PGUM 182015 AAD
TAFTRO
TAF AMD
PTRO 182015Z 1820/1918 VRB03KT P6SM VCSH FEW016 SCT120
      TEMPO 1820/1822 -SHRA BKN016
     FM190000 05009KT P6SM VCSH SCT016 SCT120=

USA.gov is the U.S. government's official web portal to all federal, state and local government web resources and services.